Main page
METAR-TAF:

METAR-TAF

Airports :

Riga International Airport

Riga, Latvia

latitude: 56-55N, longitude: 023-58E, elevation: 10 m

Current weather observation

The report was made 28 minutes ago, at 22:50 UTC
Calm wind
Temperature 10°C
Humidity 93%
Pressure 1021 hPa
Visibility 10 km or more
no clouds below 1500 m and no cumulonimbus

METAR: EVRA 162250Z 00000KT CAVOK 10/09 Q1021 NOSIG

Time: 02:18 (23:18 UTC)

Forecast

The report was made 3 hours and 17 minutes ago, at 20:01 UTC
Forecast valid from 16 at 21 UTC to 17 at 21 UTC
Wind 2 kt from variable directions
Visibility 10 km or more
no clouds below 1500 m and no cumulonimbus
Temporary
from 16 at 23 UTC to 17 at 04 UTC
Visibility: 0700 m
fog

TAF: EVRA 162001Z 1621/1721 VRB02KT CAVOK TEMPO 1623/1704 0700 FG

Weather observations and forecasts of more than 4000 airports (METAR and TAF reports).

The available stations are represented by yellow and red dots on the map.

Hover mouse over dot to see the name of the station.

Then click to see weather observations and forecasts.

To change the map : click on the green buttons with a black cross to zoom in, on the green button with a dash to zoom out, or on the green arrows for adjacent maps.


METAR-TAF: